sensor_id;sensor_type;location;lat;lon;timestamp;temperature;humidity
1225;DHT22;602;48.000;7.840;2023-05-10T00:01:00;15.00;99.90
1225;DHT22;602;48.000;7.840;2023-05-10T00:03:26;15.00;99.90
1225;DHT22;602;48.000;7.840;2023-05-10T00:05:53;15.00;99.90
1225;DHT22;602;48.000;7.840;2023-05-10T00:08:20;14.90;99.90
1225;DHT22;602;48.000;7.840;2023-05-10T00:10:47;14.90;99.90
1225;DHT22;602;48.000;7.840;2023-05-10T00:13:14;14.90;99.90
1225;DHT22;602;48.000;7.840;2023-05-10T00:15:42;14.90;99.90
1225;DHT22;602;48.000;7.840;2023-05-10T00:18:09;14.80;99.90
1225;DHT22;602;48.000;7.840;2023-05-10T00:20:36;14.80;99.90
1225;DHT22;602;48.000;7.840;2023-05-10T00:23:02;14.80;99.90
1225;DHT22;602;48.000;7.840;2023-05-10T00:25:29;14.80;99.90
1225;DHT22;602;48.000;7.840;2023-05-10T00:27:56;14.80;99.90
1225;DHT22;602;48.000;7.840;2023-05-10T00:30:24;14.90;99.90
1225;DHT22;602;48.000;7.840;2023-05-10T00:32:52;14.90;99.90
1225;DHT22;602;48.000;7.840;2023-05-10T00:35:19;14.90;99.90
1225;DHT22;602;48.000;7.840;2023-05-10T00:37:47;14.90;99.90
1225;DHT22;602;48.000;7.840;2023-05-10T00:40:14;15.00;99.90
1225;DHT22;602;48.000;7.840;2023-05-10T00:42:43;15.00;99.90
1225;DHT22;602;48.000;7.840;2023-05-10T00:45:10;15.00;99.90
1225;DHT22;602;48.000;7.840;2023-05-10T00:47:37;15.10;99.90
1225;DHT22;602;48.000;7.840;2023-05-10T00:50:07;15.00;99.90
1225;DHT22;602;48.000;7.840;2023-05-10T00:52:34;15.00;99.90
1225;DHT22;602;48.000;7.840;2023-05-10T00:55:01;15.10;99.90
1225;DHT22;602;48.000;7.840;2023-05-10T00:57:28;15.10;99.90
1225;DHT22;602;48.000;7.840;2023-05-10T00:59:56;15.10;99.90
1225;DHT22;602;48.000;7.840;2023-05-10T01:02:24;15.00;99.90
1225;DHT22;602;48.000;7.840;2023-05-10T01:04:51;15.10;99.90
1225;DHT22;602;48.000;7.840;2023-05-10T01:07:19;15.00;99.90
1225;DHT22;602;48.000;7.840;2023-05-10T01:09:46;15.10;99.90
1225;DHT22;602;48.000;7.840;2023-05-10T01:12:13;15.00;99.90
1225;DHT22;602;48.000;7.840;2023-05-10T01:14:40;15.00;99.90
1225;DHT22;602;48.000;7.840;2023-05-10T01:17:07;14.90;99.90
1225;DHT22;602;48.000;7.840;2023-05-10T01:19:35;14.90;99.90
1225;DHT22;602;48.000;7.840;2023-05-10T01:22:10;14.90;99.90
1225;DHT22;602;48.000;7.840;2023-05-10T01:25:03;14.90;99.90
1225;DHT22;602;48.000;7.840;2023-05-10T01:27:54;14.80;99.90
1225;DHT22;602;48.000;7.840;2023-05-10T01:30:57;14.80;99.90
1225;DHT22;602;48.000;7.840;2023-05-10T01:33:35;14.80;99.90
1225;DHT22;602;48.000;7.840;2023-05-10T01:36:08;14.80;99.90
1225;DHT22;602;48.000;7.840;2023-05-10T01:38:44;14.70;99.90
1225;DHT22;602;48.000;7.840;2023-05-10T01:41:18;14.80;99.90
1225;DHT22;602;48.000;7.840;2023-05-10T01:43:54;14.70;99.90
1225;DHT22;602;48.000;7.840;2023-05-10T01:46:27;14.80;99.90
1225;DHT22;602;48.000;7.840;2023-05-10T01:48:58;14.80;99.90
1225;DHT22;602;48.000;7.840;2023-05-10T01:51:31;14.70;99.90
1225;DHT22;602;48.000;7.840;2023-05-10T01:54:03;14.80;99.90
1225;DHT22;602;48.000;7.840;2023-05-10T01:56:32;14.80;99.90
1225;DHT22;602;48.000;7.840;2023-05-10T01:59:00;14.80;99.90
1225;DHT22;602;48.000;7.840;2023-05-10T02:01:32;14.80;99.90
1225;DHT22;602;48.000;7.840;2023-05-10T02:04:02;14.80;99.90
1225;DHT22;602;48.000;7.840;2023-05-10T02:06:30;14.60;99.90
1225;DHT22;602;48.000;7.840;2023-05-10T02:09:00;14.70;99.90
1225;DHT22;602;48.000;7.840;2023-05-10T02:11:28;14.80;99.90
1225;DHT22;602;48.000;7.840;2023-05-10T02:13:56;14.80;99.90
1225;DHT22;602;48.000;7.840;2023-05-10T02:16:26;14.80;99.90
1225;DHT22;602;48.000;7.840;2023-05-10T02:18:57;14.80;99.90
1225;DHT22;602;48.000;7.840;2023-05-10T02:21:28;14.80;99.90
1225;DHT22;602;48.000;7.840;2023-05-10T02:23:57;14.90;99.90
1225;DHT22;602;48.000;7.840;2023-05-10T02:26:24;14.90;99.90
1225;DHT22;602;48.000;7.840;2023-05-10T02:28:52;14.90;99.90
1225;DHT22;602;48.000;7.840;2023-05-10T02:31:21;14.80;99.90
1225;DHT22;602;48.000;7.840;2023-05-10T02:33:48;14.80;99.90
1225;DHT22;602;48.000;7.840;2023-05-10T02:36:16;14.90;99.90
1225;DHT22;602;48.000;7.840;2023-05-10T02:38:45;14.90;99.90
1225;DHT22;602;48.000;7.840;2023-05-10T02:41:14;14.80;99.90
1225;DHT22;602;48.000;7.840;2023-05-10T02:43:42;14.80;99.90
1225;DHT22;602;48.000;7.840;2023-05-10T02:46:09;14.80;99.90
1225;DHT22;602;48.000;7.840;2023-05-10T02:48:36;14.80;99.90
1225;DHT22;602;48.000;7.840;2023-05-10T02:51:05;14.90;99.90
1225;DHT22;602;48.000;7.840;2023-05-10T02:53:36;14.90;99.90
1225;DHT22;602;48.000;7.840;2023-05-10T02:56:10;14.80;99.90
1225;DHT22;602;48.000;7.840;2023-05-10T02:58:38;14.80;99.90
1225;DHT22;602;48.000;7.840;2023-05-10T03:01:05;14.90;99.90
1225;DHT22;602;48.000;7.840;2023-05-10T03:03:33;14.80;99.90
1225;DHT22;602;48.000;7.840;2023-05-10T03:06:00;14.80;99.90
1225;DHT22;602;48.000;7.840;2023-05-10T03:08:27;14.80;99.90
1225;DHT22;602;48.000;7.840;2023-05-10T03:11:05;14.90;99.90
1225;DHT22;602;48.000;7.840;2023-05-10T03:13:44;14.80;99.90
1225;DHT22;602;48.000;7.840;2023-05-10T03:16:15;14.80;99.90
1225;DHT22;602;48.000;7.840;2023-05-10T03:18:47;14.70;99.90
1225;DHT22;602;48.000;7.840;2023-05-10T03:21:18;14.70;99.90
1225;DHT22;602;48.000;7.840;2023-05-10T03:23:47;14.60;99.90
1225;DHT22;602;48.000;7.840;2023-05-10T03:26:22;14.70;99.90
1225;DHT22;602;48.000;7.840;2023-05-10T03:28:53;14.70;99.90
1225;DHT22;602;48.000;7.840;2023-05-10T03:31:20;14.60;99.90
1225;DHT22;602;48.000;7.840;2023-05-10T03:33:48;14.60;99.90
1225;DHT22;602;48.000;7.840;2023-05-10T03:36:16;14.50;99.90
1225;DHT22;602;48.000;7.840;2023-05-10T03:38:43;14.60;99.90
1225;DHT22;602;48.000;7.840;2023-05-10T03:41:09;14.60;99.90
1225;DHT22;602;48.000;7.840;2023-05-10T03:43:39;14.60;99.90
1225;DHT22;602;48.000;7.840;2023-05-10T03:46:08;14.70;99.90
1225;DHT22;602;48.000;7.840;2023-05-10T03:48:37;14.60;99.90
1225;DHT22;602;48.000;7.840;2023-05-10T03:51:06;14.60;99.90
1225;DHT22;602;48.000;7.840;2023-05-10T03:53:33;14.60;99.90
1225;DHT22;602;48.000;7.840;2023-05-10T03:56:00;14.60;99.90
1225;DHT22;602;48.000;7.840;2023-05-10T03:58:27;14.60;99.90
1225;DHT22;602;48.000;7.840;2023-05-10T04:00:54;14.60;99.90
1225;DHT22;602;48.000;7.840;2023-05-10T04:03:22;14.70;99.90
1225;DHT22;602;48.000;7.840;2023-05-10T04:05:58;14.70;99.90
1225;DHT22;602;48.000;7.840;2023-05-10T04:08:25;14.70;99.90
1225;DHT22;602;48.000;7.840;2023-05-10T04:10:52;14.70;99.90
1225;DHT22;602;48.000;7.840;2023-05-10T04:13:19;14.80;99.90
1225;DHT22;602;48.000;7.840;2023-05-10T04:15:46;14.90;99.90
1225;DHT22;602;48.000;7.840;2023-05-10T04:18:13;14.90;99.90
1225;DHT22;602;48.000;7.840;2023-05-10T04:20:42;14.80;99.90
1225;DHT22;602;48.000;7.840;2023-05-10T04:23:09;14.80;99.90
1225;DHT22;602;48.000;7.840;2023-05-10T04:25:36;14.90;99.90
1225;DHT22;602;48.000;7.840;2023-05-10T04:28:03;15.00;99.90
1225;DHT22;602;48.000;7.840;2023-05-10T04:30:30;15.00;99.90
1225;DHT22;602;48.000;7.840;2023-05-10T04:32:57;15.00;99.90
1225;DHT22;602;48.000;7.840;2023-05-10T04:35:24;15.00;99.90
1225;DHT22;602;48.000;7.840;2023-05-10T04:37:53;15.10;99.90
1225;DHT22;602;48.000;7.840;2023-05-10T04:40:20;15.10;99.90
1225;DHT22;602;48.000;7.840;2023-05-10T04:42:47;14.90;99.90
1225;DHT22;602;48.000;7.840;2023-05-10T04:45:14;14.90;99.90
1225;DHT22;602;48.000;7.840;2023-05-10T04:47:41;14.80;99.90
1225;DHT22;602;48.000;7.840;2023-05-10T04:50:08;14.70;99.90
1225;DHT22;602;48.000;7.840;2023-05-10T04:52:35;14.70;99.90
1225;DHT22;602;48.000;7.840;2023-05-10T04:55:04;14.70;99.90
1225;DHT22;602;48.000;7.840;2023-05-10T04:57:32;14.70;99.90
1225;DHT22;602;48.000;7.840;2023-05-10T05:00:00;14.70;99.90
1225;DHT22;602;48.000;7.840;2023-05-10T05:02:27;14.60;99.90
1225;DHT22;602;48.000;7.840;2023-05-10T05:04:55;14.50;99.90
1225;DHT22;602;48.000;7.840;2023-05-10T05:07:23;14.50;99.90
1225;DHT22;602;48.000;7.840;2023-05-10T05:09:50;14.50;99.90
1225;DHT22;602;48.000;7.840;2023-05-10T05:12:19;14.50;99.90
1225;DHT22;602;48.000;7.840;2023-05-10T05:14:46;14.60;99.90
1225;DHT22;602;48.000;7.840;2023-05-10T05:17:13;14.60;99.90
1225;DHT22;602;48.000;7.840;2023-05-10T05:19:40;14.60;99.90
1225;DHT22;602;48.000;7.840;2023-05-10T05:22:07;14.60;99.90
1225;DHT22;602;48.000;7.840;2023-05-10T05:24:37;14.70;99.90
1225;DHT22;602;48.000;7.840;2023-05-10T05:27:05;14.60;99.90
1225;DHT22;602;48.000;7.840;2023-05-10T05:29:34;14.70;99.90
1225;DHT22;602;48.000;7.840;2023-05-10T05:32:01;14.60;99.90
1225;DHT22;602;48.000;7.840;2023-05-10T05:34:28;14.60;99.90
1225;DHT22;602;48.000;7.840;2023-05-10T05:36:55;14.60;99.90
1225;DHT22;602;48.000;7.840;2023-05-10T05:39:22;14.70;99.90
1225;DHT22;602;48.000;7.840;2023-05-10T05:41:49;14.60;99.90
1225;DHT22;602;48.000;7.840;2023-05-10T05:44:16;14.50;99.90
1225;DHT22;602;48.000;7.840;2023-05-10T05:46:44;14.40;99.90
1225;DHT22;602;48.000;7.840;2023-05-10T05:49:11;14.50;99.90
1225;DHT22;602;48.000;7.840;2023-05-10T05:51:38;14.40;99.90
1225;DHT22;602;48.000;7.840;2023-05-10T05:54:05;14.50;99.90
1225;DHT22;602;48.000;7.840;2023-05-10T05:56:32;14.50;99.90
1225;DHT22;602;48.000;7.840;2023-05-10T05:58:59;14.50;99.90
1225;DHT22;602;48.000;7.840;2023-05-10T06:01:26;14.40;99.90
1225;DHT22;602;48.000;7.840;2023-05-10T06:03:54;14.40;99.90
1225;DHT22;602;48.000;7.840;2023-05-10T06:06:22;14.30;99.90
1225;DHT22;602;48.000;7.840;2023-05-10T06:08:49;14.30;99.90
1225;DHT22;602;48.000;7.840;2023-05-10T06:11:16;14.30;99.90
1225;DHT22;602;48.000;7.840;2023-05-10T06:13:43;14.20;99.90
1225;DHT22;602;48.000;7.840;2023-05-10T06:16:11;14.20;99.90
1225;DHT22;602;48.000;7.840;2023-05-10T06:18:38;14.20;99.90
1225;DHT22;602;48.000;7.840;2023-05-10T06:21:07;14.10;99.90
1225;DHT22;602;48.000;7.840;2023-05-10T06:23:34;14.20;99.90
1225;DHT22;602;48.000;7.840;2023-05-10T06:26:02;14.20;99.90
1225;DHT22;602;48.000;7.840;2023-05-10T06:28:28;14.10;99.90
1225;DHT22;602;48.000;7.840;2023-05-10T06:30:56;14.10;99.90
1225;DHT22;602;48.000;7.840;2023-05-10T06:33:23;14.10;99.90
1225;DHT22;602;48.000;7.840;2023-05-10T06:35:50;14.20;99.90
1225;DHT22;602;48.000;7.840;2023-05-10T06:38:18;14.10;99.90
1225;DHT22;602;48.000;7.840;2023-05-10T06:40:45;14.10;99.90
1225;DHT22;602;48.000;7.840;2023-05-10T06:43:14;14.10;99.90
1225;DHT22;602;48.000;7.840;2023-05-10T06:45:41;14.10;99.90
1225;DHT22;602;48.000;7.840;2023-05-10T06:48:08;14.20;99.90
1225;DHT22;602;48.000;7.840;2023-05-10T06:50:35;14.20;99.90
1225;DHT22;602;48.000;7.840;2023-05-10T06:53:02;14.30;99.90
1225;DHT22;602;48.000;7.840;2023-05-10T06:55:30;14.30;99.90
1225;DHT22;602;48.000;7.840;2023-05-10T06:57:57;14.30;99.90
1225;DHT22;602;48.000;7.840;2023-05-10T07:00:24;14.30;99.90
1225;DHT22;602;48.000;7.840;2023-05-10T07:02:51;14.30;99.90
1225;DHT22;602;48.000;7.840;2023-05-10T07:05:18;14.40;99.90
1225;DHT22;602;48.000;7.840;2023-05-10T07:07:45;14.40;99.90
1225;DHT22;602;48.000;7.840;2023-05-10T07:10:12;14.50;99.90
1225;DHT22;602;48.000;7.840;2023-05-10T07:12:40;14.50;99.90
1225;DHT22;602;48.000;7.840;2023-05-10T07:15:08;14.50;99.90
1225;DHT22;602;48.000;7.840;2023-05-10T07:17:35;14.60;99.90
1225;DHT22;602;48.000;7.840;2023-05-10T07:20:03;14.70;99.90
1225;DHT22;602;48.000;7.840;2023-05-10T07:22:30;14.70;99.90
1225;DHT22;602;48.000;7.840;2023-05-10T07:24:57;14.70;99.90
1225;DHT22;602;48.000;7.840;2023-05-10T07:27:24;14.80;99.90
1225;DHT22;602;48.000;7.840;2023-05-10T07:29:53;14.80;99.90
1225;DHT22;602;48.000;7.840;2023-05-10T07:32:20;14.90;99.90
1225;DHT22;602;48.000;7.840;2023-05-10T07:34:47;14.90;99.90
1225;DHT22;602;48.000;7.840;2023-05-10T07:37:14;15.00;99.90
1225;DHT22;602;48.000;7.840;2023-05-10T07:39:41;15.10;99.90
1225;DHT22;602;48.000;7.840;2023-05-10T07:42:08;15.00;99.90
1225;DHT22;602;48.000;7.840;2023-05-10T07:44:34;15.10;99.90
1225;DHT22;602;48.000;7.840;2023-05-10T07:47:03;15.10;99.90
1225;DHT22;602;48.000;7.840;2023-05-10T07:49:30;15.10;99.90
1225;DHT22;602;48.000;7.840;2023-05-10T07:51:56;15.30;99.90
1225;DHT22;602;48.000;7.840;2023-05-10T07:54:23;15.30;99.90
1225;DHT22;602;48.000;7.840;2023-05-10T07:56:51;15.50;99.90
1225;DHT22;602;48.000;7.840;2023-05-10T07:59:18;15.40;99.90
1225;DHT22;602;48.000;7.840;2023-05-10T08:01:45;15.50;99.90
1225;DHT22;602;48.000;7.840;2023-05-10T08:04:13;15.60;99.90
1225;DHT22;602;48.000;7.840;2023-05-10T08:06:40;15.60;99.90
1225;DHT22;602;48.000;7.840;2023-05-10T08:09:08;15.70;99.90
1225;DHT22;602;48.000;7.840;2023-05-10T08:11:36;15.80;99.90
1225;DHT22;602;48.000;7.840;2023-05-10T08:14:03;15.90;99.90
1225;DHT22;602;48.000;7.840;2023-05-10T08:16:30;16.10;99.90
1225;DHT22;602;48.000;7.840;2023-05-10T08:18:57;16.20;99.90
1225;DHT22;602;48.000;7.840;2023-05-10T08:21:26;16.50;99.90
1225;DHT22;602;48.000;7.840;2023-05-10T08:23:52;16.70;99.90
1225;DHT22;602;48.000;7.840;2023-05-10T08:26:19;17.00;99.90
1225;DHT22;602;48.000;7.840;2023-05-10T08:28:47;17.10;99.90
1225;DHT22;602;48.000;7.840;2023-05-10T08:31:15;17.30;99.90
1225;DHT22;602;48.000;7.840;2023-05-10T08:33:42;17.40;99.90
1225;DHT22;602;48.000;7.840;2023-05-10T08:36:09;17.50;99.90
1225;DHT22;602;48.000;7.840;2023-05-10T08:38:37;17.70;99.90
1225;DHT22;602;48.000;7.840;2023-05-10T08:41:05;17.80;99.90
1225;DHT22;602;48.000;7.840;2023-05-10T08:43:32;17.90;99.90
1225;DHT22;602;48.000;7.840;2023-05-10T08:46:00;18.10;99.90
1225;DHT22;602;48.000;7.840;2023-05-10T08:48:29;18.10;99.90
1225;DHT22;602;48.000;7.840;2023-05-10T08:50:58;18.10;99.90
1225;DHT22;602;48.000;7.840;2023-05-10T08:53:25;18.20;99.90
1225;DHT22;602;48.000;7.840;2023-05-10T08:55:55;18.30;99.90
1225;DHT22;602;48.000;7.840;2023-05-10T08:58:22;18.20;99.90
1225;DHT22;602;48.000;7.840;2023-05-10T09:00:49;18.20;99.90
1225;DHT22;602;48.000;7.840;2023-05-10T09:03:18;18.20;99.90
1225;DHT22;602;48.000;7.840;2023-05-10T09:05:45;18.30;99.90
1225;DHT22;602;48.000;7.840;2023-05-10T09:08:12;18.60;99.90
1225;DHT22;602;48.000;7.840;2023-05-10T09:10:42;18.80;99.90
1225;DHT22;602;48.000;7.840;2023-05-10T09:13:11;19.00;99.90
1225;DHT22;602;48.000;7.840;2023-05-10T09:15:38;19.10;99.90
1225;DHT22;602;48.000;7.840;2023-05-10T09:18:05;19.00;99.90
1225;DHT22;602;48.000;7.840;2023-05-10T09:20:32;18.80;99.90
1225;DHT22;602;48.000;7.840;2023-05-10T09:22:59;18.50;99.90
1225;DHT22;602;48.000;7.840;2023-05-10T09:25:26;18.30;99.90
1225;DHT22;602;48.000;7.840;2023-05-10T09:27:53;18.40;99.90
1225;DHT22;602;48.000;7.840;2023-05-10T09:30:26;18.50;99.90
1225;DHT22;602;48.000;7.840;2023-05-10T09:32:53;18.90;99.90
1225;DHT22;602;48.000;7.840;2023-05-10T09:35:23;19.00;99.90
1225;DHT22;602;48.000;7.840;2023-05-10T09:37:53;19.30;99.90
1225;DHT22;602;48.000;7.840;2023-05-10T09:40:21;19.60;99.90
1225;DHT22;602;48.000;7.840;2023-05-10T09:42:52;19.80;99.90
1225;DHT22;602;48.000;7.840;2023-05-10T09:45:20;19.90;99.90
1225;DHT22;602;48.000;7.840;2023-05-10T09:47:48;20.00;99.90
1225;DHT22;602;48.000;7.840;2023-05-10T09:50:15;20.20;99.90
1225;DHT22;602;48.000;7.840;2023-05-10T09:52:49;20.30;99.90
1225;DHT22;602;48.000;7.840;2023-05-10T09:55:19;20.40;99.90
1225;DHT22;602;48.000;7.840;2023-05-10T09:57:46;20.80;99.90
1225;DHT22;602;48.000;7.840;2023-05-10T10:00:17;21.00;99.90
1225;DHT22;602;48.000;7.840;2023-05-10T10:02:47;21.10;99.90
1225;DHT22;602;48.000;7.840;2023-05-10T10:05:14;21.30;99.90
1225;DHT22;602;48.000;7.840;2023-05-10T10:07:41;21.40;99.90
1225;DHT22;602;48.000;7.840;2023-05-10T10:10:09;21.50;99.90
1225;DHT22;602;48.000;7.840;2023-05-10T10:12:39;21.70;99.90
1225;DHT22;602;48.000;7.840;2023-05-10T10:15:07;21.70;99.90
1225;DHT22;602;48.000;7.840;2023-05-10T10:17:36;21.80;99.90
1225;DHT22;602;48.000;7.840;2023-05-10T10:20:06;21.80;99.90
1225;DHT22;602;48.000;7.840;2023-05-10T10:22:34;22.00;99.90
1225;DHT22;602;48.000;7.840;2023-05-10T10:25:01;21.80;99.90
1225;DHT22;602;48.000;7.840;2023-05-10T10:27:36;21.90;99.90
1225;DHT22;602;48.000;7.840;2023-05-10T10:30:13;21.80;99.90
1225;DHT22;602;48.000;7.840;2023-05-10T10:33:00;22.00;99.90
1225;DHT22;602;48.000;7.840;2023-05-10T10:35:35;22.20;99.90
1225;DHT22;602;48.000;7.840;2023-05-10T10:38:03;22.30;99.90
1225;DHT22;602;48.000;7.840;2023-05-10T10:40:31;22.30;99.90
1225;DHT22;602;48.000;7.840;2023-05-10T10:43:22;22.20;99.90
1225;DHT22;602;48.000;7.840;2023-05-10T10:46:10;22.60;99.90
1225;DHT22;602;48.000;7.840;2023-05-10T10:48:38;22.60;99.90
1225;DHT22;602;48.000;7.840;2023-05-10T10:51:06;22.50;99.90
1225;DHT22;602;48.000;7.840;2023-05-10T10:53:33;22.40;99.90
1225;DHT22;602;48.000;7.840;2023-05-10T10:56:07;22.20;99.90
1225;DHT22;602;48.000;7.840;2023-05-10T10:58:36;22.10;99.90
1225;DHT22;602;48.000;7.840;2023-05-10T11:01:11;22.00;99.90
1225;DHT22;602;48.000;7.840;2023-05-10T11:03:38;21.90;99.90
1225;DHT22;602;48.000;7.840;2023-05-10T11:06:06;22.00;99.90
1225;DHT22;602;48.000;7.840;2023-05-10T11:08:41;22.20;99.90
1225;DHT22;602;48.000;7.840;2023-05-10T11:11:08;22.20;99.90
1225;DHT22;602;48.000;7.840;2023-05-10T11:13:39;22.40;99.90
1225;DHT22;602;48.000;7.840;2023-05-10T11:16:12;22.10;99.90
1225;DHT22;602;48.000;7.840;2023-05-10T11:18:40;21.90;99.90
1225;DHT22;602;48.000;7.840;2023-05-10T11:21:09;21.90;99.90
1225;DHT22;602;48.000;7.840;2023-05-10T11:23:53;21.60;99.90
1225;DHT22;602;48.000;7.840;2023-05-10T11:26:22;21.70;99.90
1225;DHT22;602;48.000;7.840;2023-05-10T11:28:52;21.50;99.90
1225;DHT22;602;48.000;7.840;2023-05-10T11:31:20;21.50;99.90
1225;DHT22;602;48.000;7.840;2023-05-10T11:33:50;21.30;99.90
1225;DHT22;602;48.000;7.840;2023-05-10T11:36:19;21.20;99.90
1225;DHT22;602;48.000;7.840;2023-05-10T11:38:47;21.10;99.90
1225;DHT22;602;48.000;7.840;2023-05-10T11:41:16;21.10;99.90
1225;DHT22;602;48.000;7.840;2023-05-10T11:43:46;21.00;99.90
1225;DHT22;602;48.000;7.840;2023-05-10T11:46:14;20.80;99.90
1225;DHT22;602;48.000;7.840;2023-05-10T11:48:42;20.80;99.90
1225;DHT22;602;48.000;7.840;2023-05-10T11:51:10;20.80;99.90
1225;DHT22;602;48.000;7.840;2023-05-10T11:53:38;20.60;99.90
1225;DHT22;602;48.000;7.840;2023-05-10T11:56:05;20.30;99.90
1225;DHT22;602;48.000;7.840;2023-05-10T11:58:33;20.20;99.90
1225;DHT22;602;48.000;7.840;2023-05-10T12:01:00;20.20;99.90
1225;DHT22;602;48.000;7.840;2023-05-10T12:03:28;20.10;99.90
1225;DHT22;602;48.000;7.840;2023-05-10T12:05:56;20.10;99.90
1225;DHT22;602;48.000;7.840;2023-05-10T12:08:24;19.90;99.90
1225;DHT22;602;48.000;7.840;2023-05-10T12:10:53;19.90;99.90
1225;DHT22;602;48.000;7.840;2023-05-10T12:13:21;19.90;99.90
1225;DHT22;602;48.000;7.840;2023-05-10T12:15:48;19.80;99.90
1225;DHT22;602;48.000;7.840;2023-05-10T12:18:15;19.70;99.90
1225;DHT22;602;48.000;7.840;2023-05-10T12:20:51;19.70;99.90
1225;DHT22;602;48.000;7.840;2023-05-10T12:23:20;19.70;99.90
1225;DHT22;602;48.000;7.840;2023-05-10T12:25:47;19.70;99.90
1225;DHT22;602;48.000;7.840;2023-05-10T12:28:15;19.60;99.90
1225;DHT22;602;48.000;7.840;2023-05-10T12:30:45;19.60;99.90
1225;DHT22;602;48.000;7.840;2023-05-10T12:33:13;19.60;99.90
1225;DHT22;602;48.000;7.840;2023-05-10T12:35:46;19.40;99.90
1225;DHT22;602;48.000;7.840;2023-05-10T12:38:25;19.40;99.90
1225;DHT22;602;48.000;7.840;2023-05-10T12:40:55;19.20;99.90
1225;DHT22;602;48.000;7.840;2023-05-10T12:43:23;18.90;99.90
1225;DHT22;602;48.000;7.840;2023-05-10T12:45:50;18.60;99.90
1225;DHT22;602;48.000;7.840;2023-05-10T12:48:17;18.50;99.90
1225;DHT22;602;48.000;7.840;2023-05-10T12:50:44;18.20;99.90
1225;DHT22;602;48.000;7.840;2023-05-10T12:53:11;18.00;99.90
1225;DHT22;602;48.000;7.840;2023-05-10T12:55:39;17.90;99.90
1225;DHT22;602;48.000;7.840;2023-05-10T12:58:06;17.70;99.90
1225;DHT22;602;48.000;7.840;2023-05-10T13:00:34;17.60;99.90
1225;DHT22;602;48.000;7.840;2023-05-10T13:03:03;17.60;99.90
1225;DHT22;602;48.000;7.840;2023-05-10T13:05:30;17.60;99.90
1225;DHT22;602;48.000;7.840;2023-05-10T13:07:57;17.40;99.90
1225;DHT22;602;48.000;7.840;2023-05-10T13:10:24;17.40;99.90
1225;DHT22;602;48.000;7.840;2023-05-10T13:12:51;17.40;99.90
1225;DHT22;602;48.000;7.840;2023-05-10T13:15:18;17.40;99.90
1225;DHT22;602;48.000;7.840;2023-05-10T13:17:46;17.30;99.90
1225;DHT22;602;48.000;7.840;2023-05-10T13:20:13;17.30;99.90
1225;DHT22;602;48.000;7.840;2023-05-10T13:22:41;17.20;99.90
1225;DHT22;602;48.000;7.840;2023-05-10T13:25:08;17.20;99.90
1225;DHT22;602;48.000;7.840;2023-05-10T13:27:36;17.20;99.90
1225;DHT22;602;48.000;7.840;2023-05-10T13:30:04;17.10;99.90
1225;DHT22;602;48.000;7.840;2023-05-10T13:32:31;17.00;99.90
1225;DHT22;602;48.000;7.840;2023-05-10T13:34:59;17.10;99.90
1225;DHT22;602;48.000;7.840;2023-05-10T13:37:26;17.10;99.90
1225;DHT22;602;48.000;7.840;2023-05-10T13:39:53;17.30;99.90
1225;DHT22;602;48.000;7.840;2023-05-10T13:42:21;17.30;99.90
1225;DHT22;602;48.000;7.840;2023-05-10T13:44:48;17.40;99.90
1225;DHT22;602;48.000;7.840;2023-05-10T13:47:15;17.40;99.90
1225;DHT22;602;48.000;7.840;2023-05-10T13:49:42;17.50;99.90
1225;DHT22;602;48.000;7.840;2023-05-10T13:52:11;17.60;99.90
1225;DHT22;602;48.000;7.840;2023-05-10T13:54:38;17.60;99.90
1225;DHT22;602;48.000;7.840;2023-05-10T13:57:05;17.70;99.90
1225;DHT22;602;48.000;7.840;2023-05-10T13:59:32;17.60;99.90
1225;DHT22;602;48.000;7.840;2023-05-10T14:01:59;17.50;99.90
1225;DHT22;602;48.000;7.840;2023-05-10T14:04:27;17.50;99.90
1225;DHT22;602;48.000;7.840;2023-05-10T14:06:55;17.50;99.90
1225;DHT22;602;48.000;7.840;2023-05-10T14:09:23;17.50;99.90
1225;DHT22;602;48.000;7.840;2023-05-10T14:11:50;17.40;99.90
1225;DHT22;602;48.000;7.840;2023-05-10T14:14:17;17.50;99.90
1225;DHT22;602;48.000;7.840;2023-05-10T14:16:44;17.50;99.90
1225;DHT22;602;48.000;7.840;2023-05-10T14:19:11;17.50;99.90
1225;DHT22;602;48.000;7.840;2023-05-10T14:21:38;17.60;99.90
1225;DHT22;602;48.000;7.840;2023-05-10T14:24:05;17.60;99.90
1225;DHT22;602;48.000;7.840;2023-05-10T14:26:34;17.70;99.90
1225;DHT22;602;48.000;7.840;2023-05-10T14:29:01;17.80;99.90
1225;DHT22;602;48.000;7.840;2023-05-10T14:31:28;17.80;99.90
1225;DHT22;602;48.000;7.840;2023-05-10T14:33:55;17.80;99.90
1225;DHT22;602;48.000;7.840;2023-05-10T14:36:22;17.80;99.90
1225;DHT22;602;48.000;7.840;2023-05-10T14:38:49;17.80;99.90
1225;DHT22;602;48.000;7.840;2023-05-10T14:41:16;17.80;99.90
1225;DHT22;602;48.000;7.840;2023-05-10T14:43:44;17.80;99.90
1225;DHT22;602;48.000;7.840;2023-05-10T14:46:11;17.80;99.90
1225;DHT22;602;48.000;7.840;2023-05-10T14:48:38;17.70;99.90
1225;DHT22;602;48.000;7.840;2023-05-10T14:51:05;17.80;99.90
1225;DHT22;602;48.000;7.840;2023-05-10T14:53:32;17.80;99.90
1225;DHT22;602;48.000;7.840;2023-05-10T14:55:59;17.90;99.90
1225;DHT22;602;48.000;7.840;2023-05-10T14:58:26;17.70;99.90
1225;DHT22;602;48.000;7.840;2023-05-10T15:00:55;17.70;99.90
1225;DHT22;602;48.000;7.840;2023-05-10T15:03:22;17.80;99.90
1225;DHT22;602;48.000;7.840;2023-05-10T15:05:49;17.80;99.90
1225;DHT22;602;48.000;7.840;2023-05-10T15:08:15;17.90;99.90
1225;DHT22;602;48.000;7.840;2023-05-10T15:10:42;18.10;99.90
1225;DHT22;602;48.000;7.840;2023-05-10T15:13:09;18.10;99.90
1225;DHT22;602;48.000;7.840;2023-05-10T15:15:36;18.10;99.90
1225;DHT22;602;48.000;7.840;2023-05-10T15:18:05;18.10;99.90
1225;DHT22;602;48.000;7.840;2023-05-10T15:20:31;18.10;99.90
1225;DHT22;602;48.000;7.840;2023-05-10T15:22:58;18.20;99.90
1225;DHT22;602;48.000;7.840;2023-05-10T15:25:26;18.30;99.90
1225;DHT22;602;48.000;7.840;2023-05-10T15:27:54;18.20;99.90
1225;DHT22;602;48.000;7.840;2023-05-10T15:30:21;18.20;99.90
1225;DHT22;602;48.000;7.840;2023-05-10T15:32:48;18.20;99.90
1225;DHT22;602;48.000;7.840;2023-05-10T15:35:16;18.30;99.90
1225;DHT22;602;48.000;7.840;2023-05-10T15:37:43;18.30;99.90
1225;DHT22;602;48.000;7.840;2023-05-10T15:40:10;18.30;99.90
1225;DHT22;602;48.000;7.840;2023-05-10T15:42:37;18.30;99.90
1225;DHT22;602;48.000;7.840;2023-05-10T15:45:05;18.40;99.90
1225;DHT22;602;48.000;7.840;2023-05-10T15:47:32;18.40;99.90
1225;DHT22;602;48.000;7.840;2023-05-10T15:49:59;18.50;99.90
1225;DHT22;602;48.000;7.840;2023-05-10T15:52:28;18.50;99.90
1225;DHT22;602;48.000;7.840;2023-05-10T15:54:54;18.50;99.90
1225;DHT22;602;48.000;7.840;2023-05-10T15:57:21;18.50;99.90
1225;DHT22;602;48.000;7.840;2023-05-10T15:59:48;18.50;99.90
1225;DHT22;602;48.000;7.840;2023-05-10T16:02:16;18.40;99.90
1225;DHT22;602;48.000;7.840;2023-05-10T16:04:44;18.40;99.90
1225;DHT22;602;48.000;7.840;2023-05-10T16:07:10;18.30;99.90
1225;DHT22;602;48.000;7.840;2023-05-10T16:09:39;18.30;99.90
1225;DHT22;602;48.000;7.840;2023-05-10T16:12:07;18.20;99.90
1225;DHT22;602;48.000;7.840;2023-05-10T16:14:34;18.10;99.90
1225;DHT22;602;48.000;7.840;2023-05-10T16:17:01;18.10;99.90
1225;DHT22;602;48.000;7.840;2023-05-10T16:19:28;18.10;99.90
1225;DHT22;602;48.000;7.840;2023-05-10T16:21:55;17.90;99.90
1225;DHT22;602;48.000;7.840;2023-05-10T16:24:22;17.80;99.90